sensor_id;sensor_type;location;lat;lon;timestamp;P1;durP1;ratioP1;P2;durP2;ratioP2
37495;SDS011;23346;52.088;4.746;2023-07-20T00:00:08;78.83;;;73.50;;
37495;SDS011;23346;52.088;4.746;2023-07-20T00:02:37;71.00;;;66.20;;
37495;SDS011;23346;52.088;4.746;2023-07-20T00:05:03;74.22;;;69.18;;
37495;SDS011;23346;52.088;4.746;2023-07-20T00:07:29;73.88;;;68.60;;
37495;SDS011;23346;52.088;4.746;2023-07-20T00:09:55;70.88;;;65.75;;
37495;SDS011;23346;52.088;4.746;2023-07-20T00:12:22;74.13;;;68.82;;
37495;SDS011;23346;52.088;4.746;2023-07-20T00:14:48;73.53;;;68.70;;
37495;SDS011;23346;52.088;4.746;2023-07-20T00:17:13;77.10;;;71.40;;
37495;SDS011;23346;52.088;4.746;2023-07-20T00:19:39;72.07;;;67.13;;
37495;SDS011;23346;52.088;4.746;2023-07-20T00:22:05;72.35;;;67.10;;
37495;SDS011;23346;52.088;4.746;2023-07-20T00:24:31;72.10;;;67.00;;
37495;SDS011;23346;52.088;4.746;2023-07-20T00:26:57;71.33;;;66.80;;
37495;SDS011;23346;52.088;4.746;2023-07-20T00:29:23;70.85;;;66.57;;
37495;SDS011;23346;52.088;4.746;2023-07-20T00:31:49;68.55;;;64.32;;
37495;SDS011;23346;52.088;4.746;2023-07-20T00:34:15;67.67;;;63.83;;
37495;SDS011;23346;52.088;4.746;2023-07-20T00:36:41;63.80;;;60.17;;
37495;SDS011;23346;52.088;4.746;2023-07-20T00:39:07;61.20;;;57.67;;
37495;SDS011;23346;52.088;4.746;2023-07-20T00:41:33;62.63;;;59.27;;
37495;SDS011;23346;52.088;4.746;2023-07-20T00:43:59;65.27;;;61.53;;
37495;SDS011;23346;52.088;4.746;2023-07-20T00:46:25;61.93;;;58.67;;
37495;SDS011;23346;52.088;4.746;2023-07-20T00:48:51;66.43;;;62.93;;
37495;SDS011;23346;52.088;4.746;2023-07-20T00:51:18;63.40;;;60.07;;
37495;SDS011;23346;52.088;4.746;2023-07-20T00:53:44;66.90;;;63.33;;
37495;SDS011;23346;52.088;4.746;2023-07-20T00:56:10;65.20;;;61.70;;
37495;SDS011;23346;52.088;4.746;2023-07-20T00:58:36;67.07;;;63.30;;
37495;SDS011;23346;52.088;4.746;2023-07-20T01:01:02;68.17;;;64.40;;
37495;SDS011;23346;52.088;4.746;2023-07-20T01:03:28;65.67;;;61.93;;
37495;SDS011;23346;52.088;4.746;2023-07-20T01:05:55;66.50;;;62.80;;
37495;SDS011;23346;52.088;4.746;2023-07-20T01:10:57;63.53;;;60.03;;
37495;SDS011;23346;52.088;4.746;2023-07-20T01:13:25;63.20;;;59.47;;
37495;SDS011;23346;52.088;4.746;2023-07-20T01:16:00;63.37;;;59.57;;
37495;SDS011;23346;52.088;4.746;2023-07-20T01:18:26;64.87;;;60.97;;
37495;SDS011;23346;52.088;4.746;2023-07-20T01:20:53;61.03;;;57.37;;
37495;SDS011;23346;52.088;4.746;2023-07-20T01:26:15;68.00;;;64.13;;
37495;SDS011;23346;52.088;4.746;2023-07-20T01:31:13;62.43;;;58.53;;
37495;SDS011;23346;52.088;4.746;2023-07-20T01:33:40;65.67;;;61.83;;
37495;SDS011;23346;52.088;4.746;2023-07-20T01:36:06;64.70;;;61.00;;
37495;SDS011;23346;52.088;4.746;2023-07-20T01:38:32;69.40;;;65.47;;
37495;SDS011;23346;52.088;4.746;2023-07-20T01:40:59;72.63;;;68.60;;
37495;SDS011;23346;52.088;4.746;2023-07-20T01:43:24;71.37;;;67.07;;
37495;SDS011;23346;52.088;4.746;2023-07-20T01:45:50;75.23;;;70.90;;
37495;SDS011;23346;52.088;4.746;2023-07-20T01:48:16;66.57;;;62.70;;
37495;SDS011;23346;52.088;4.746;2023-07-20T01:50:42;72.13;;;67.40;;
37495;SDS011;23346;52.088;4.746;2023-07-20T01:53:09;71.37;;;67.03;;
37495;SDS011;23346;52.088;4.746;2023-07-20T01:55:35;77.20;;;72.90;;
37495;SDS011;23346;52.088;4.746;2023-07-20T01:58:01;76.30;;;72.07;;
37495;SDS011;23346;52.088;4.746;2023-07-20T02:00:28;77.53;;;72.93;;
37495;SDS011;23346;52.088;4.746;2023-07-20T02:02:54;69.13;;;64.63;;
37495;SDS011;23346;52.088;4.746;2023-07-20T02:05:20;68.53;;;64.23;;
37495;SDS011;23346;52.088;4.746;2023-07-20T02:07:46;97.37;;;72.57;;
37495;SDS011;23346;52.088;4.746;2023-07-20T02:10:12;70.23;;;66.17;;
37495;SDS011;23346;52.088;4.746;2023-07-20T02:12:38;68.43;;;64.23;;
37495;SDS011;23346;52.088;4.746;2023-07-20T02:15:04;66.97;;;62.97;;
37495;SDS011;23346;52.088;4.746;2023-07-20T02:17:30;72.07;;;67.80;;
37495;SDS011;23346;52.088;4.746;2023-07-20T02:19:56;64.77;;;59.87;;
37495;SDS011;23346;52.088;4.746;2023-07-20T02:22:22;69.83;;;65.37;;
37495;SDS011;23346;52.088;4.746;2023-07-20T02:24:49;73.50;;;69.13;;
37495;SDS011;23346;52.088;4.746;2023-07-20T02:27:15;67.23;;;62.97;;
37495;SDS011;23346;52.088;4.746;2023-07-20T02:29:41;65.27;;;60.90;;
37495;SDS011;23346;52.088;4.746;2023-07-20T02:32:07;78.73;;;74.17;;
37495;SDS011;23346;52.088;4.746;2023-07-20T02:34:34;72.07;;;67.93;;
37495;SDS011;23346;52.088;4.746;2023-07-20T02:37:00;66.00;;;61.80;;
37495;SDS011;23346;52.088;4.746;2023-07-20T02:39:29;66.77;;;62.30;;
37495;SDS011;23346;52.088;4.746;2023-07-20T02:41:55;65.67;;;61.17;;
37495;SDS011;23346;52.088;4.746;2023-07-20T02:44:21;72.37;;;66.60;;
37495;SDS011;23346;52.088;4.746;2023-07-20T02:46:48;72.87;;;67.80;;
37495;SDS011;23346;52.088;4.746;2023-07-20T02:49:17;71.37;;;66.77;;
37495;SDS011;23346;52.088;4.746;2023-07-20T02:51:42;67.87;;;63.73;;
37495;SDS011;23346;52.088;4.746;2023-07-20T02:54:09;70.70;;;66.47;;
37495;SDS011;23346;52.088;4.746;2023-07-20T02:56:35;72.10;;;67.30;;
37495;SDS011;23346;52.088;4.746;2023-07-20T02:59:01;72.50;;;67.73;;
37495;SDS011;23346;52.088;4.746;2023-07-20T03:01:27;71.07;;;66.40;;
37495;SDS011;23346;52.088;4.746;2023-07-20T03:03:54;69.73;;;64.90;;
37495;SDS011;23346;52.088;4.746;2023-07-20T03:06:20;102.07;;;72.03;;
37495;SDS011;23346;52.088;4.746;2023-07-20T03:08:46;80.27;;;74.97;;
37495;SDS011;23346;52.088;4.746;2023-07-20T03:11:16;76.00;;;70.23;;
37495;SDS011;23346;52.088;4.746;2023-07-20T03:13:43;79.70;;;74.27;;
37495;SDS011;23346;52.088;4.746;2023-07-20T03:16:09;80.97;;;75.30;;
37495;SDS011;23346;52.088;4.746;2023-07-20T03:18:39;84.50;;;78.50;;
37495;SDS011;23346;52.088;4.746;2023-07-20T03:21:08;86.10;;;80.33;;
37495;SDS011;23346;52.088;4.746;2023-07-20T03:23:38;80.53;;;75.37;;
37495;SDS011;23346;52.088;4.746;2023-07-20T03:26:04;76.13;;;70.67;;
37495;SDS011;23346;52.088;4.746;2023-07-20T03:28:30;77.23;;;70.63;;
37495;SDS011;23346;52.088;4.746;2023-07-20T03:30:56;69.03;;;63.97;;
37495;SDS011;23346;52.088;4.746;2023-07-20T03:33:24;75.83;;;70.13;;
37495;SDS011;23346;52.088;4.746;2023-07-20T03:35:50;68.73;;;62.87;;
37495;SDS011;23346;52.088;4.746;2023-07-20T03:38:16;70.60;;;64.63;;
37495;SDS011;23346;52.088;4.746;2023-07-20T03:40:49;65.97;;;59.83;;
37495;SDS011;23346;52.088;4.746;2023-07-20T03:43:15;70.93;;;63.80;;
37495;SDS011;23346;52.088;4.746;2023-07-20T03:45:41;67.30;;;61.10;;
37495;SDS011;23346;52.088;4.746;2023-07-20T03:48:07;94.47;;;70.00;;
37495;SDS011;23346;52.088;4.746;2023-07-20T03:50:33;71.27;;;63.20;;
37495;SDS011;23346;52.088;4.746;2023-07-20T03:52:59;71.63;;;59.20;;
37495;SDS011;23346;52.088;4.746;2023-07-20T03:55:25;67.03;;;59.23;;
37495;SDS011;23346;52.088;4.746;2023-07-20T03:57:51;65.97;;;58.77;;
37495;SDS011;23346;52.088;4.746;2023-07-20T04:00:17;70.87;;;63.10;;
37495;SDS011;23346;52.088;4.746;2023-07-20T04:02:43;76.57;;;68.77;;
37495;SDS011;23346;52.088;4.746;2023-07-20T04:05:09;80.97;;;72.93;;
37495;SDS011;23346;52.088;4.746;2023-07-20T04:07:35;83.70;;;75.63;;
37495;SDS011;23346;52.088;4.746;2023-07-20T04:10:01;157.97;;;77.13;;
37495;SDS011;23346;52.088;4.746;2023-07-20T04:12:27;78.20;;;70.50;;
37495;SDS011;23346;52.088;4.746;2023-07-20T04:14:53;69.97;;;62.73;;
37495;SDS011;23346;52.088;4.746;2023-07-20T04:17:19;76.10;;;68.87;;
37495;SDS011;23346;52.088;4.746;2023-07-20T04:19:45;71.77;;;64.90;;
37495;SDS011;23346;52.088;4.746;2023-07-20T04:22:11;70.50;;;63.17;;
37495;SDS011;23346;52.088;4.746;2023-07-20T04:24:37;73.63;;;65.93;;
37495;SDS011;23346;52.088;4.746;2023-07-20T04:27:03;76.80;;;69.80;;
37495;SDS011;23346;52.088;4.746;2023-07-20T04:29:28;75.33;;;68.47;;
37495;SDS011;23346;52.088;4.746;2023-07-20T04:31:54;73.03;;;65.73;;
37495;SDS011;23346;52.088;4.746;2023-07-20T04:34:20;74.80;;;67.57;;
37495;SDS011;23346;52.088;4.746;2023-07-20T04:36:46;67.47;;;60.57;;
37495;SDS011;23346;52.088;4.746;2023-07-20T04:39:12;72.43;;;64.83;;
37495;SDS011;23346;52.088;4.746;2023-07-20T04:41:38;62.87;;;56.07;;
37495;SDS011;23346;52.088;4.746;2023-07-20T04:44:04;63.80;;;56.57;;
37495;SDS011;23346;52.088;4.746;2023-07-20T04:46:30;62.63;;;54.00;;
37495;SDS011;23346;52.088;4.746;2023-07-20T04:48:56;61.33;;;54.70;;
37495;SDS011;23346;52.088;4.746;2023-07-20T04:51:22;64.07;;;56.70;;
37495;SDS011;23346;52.088;4.746;2023-07-20T04:53:48;68.83;;;55.37;;
37495;SDS011;23346;52.088;4.746;2023-07-20T04:56:15;63.77;;;51.77;;
37495;SDS011;23346;52.088;4.746;2023-07-20T04:58:41;67.60;;;49.93;;
37495;SDS011;23346;52.088;4.746;2023-07-20T05:01:07;56.27;;;49.67;;
37495;SDS011;23346;52.088;4.746;2023-07-20T05:03:33;58.80;;;49.17;;
37495;SDS011;23346;52.088;4.746;2023-07-20T05:05:59;58.93;;;48.20;;
37495;SDS011;23346;52.088;4.746;2023-07-20T05:08:28;49.70;;;44.40;;
37495;SDS011;23346;52.088;4.746;2023-07-20T05:10:54;50.20;;;45.00;;
37495;SDS011;23346;52.088;4.746;2023-07-20T05:13:20;46.67;;;41.92;;
37495;SDS011;23346;52.088;4.746;2023-07-20T05:15:46;51.13;;;45.38;;
37495;SDS011;23346;52.088;4.746;2023-07-20T05:18:12;52.35;;;46.58;;
37495;SDS011;23346;52.088;4.746;2023-07-20T05:20:38;51.47;;;44.97;;
37495;SDS011;23346;52.088;4.746;2023-07-20T05:23:04;50.95;;;45.08;;
37495;SDS011;23346;52.088;4.746;2023-07-20T05:25:30;51.17;;;45.78;;
37495;SDS011;23346;52.088;4.746;2023-07-20T05:27:56;46.42;;;41.75;;
37495;SDS011;23346;52.088;4.746;2023-07-20T05:30:22;47.42;;;42.97;;
37495;SDS011;23346;52.088;4.746;2023-07-20T05:32:48;47.30;;;43.08;;
37495;SDS011;23346;52.088;4.746;2023-07-20T05:35:17;47.78;;;43.08;;
37495;SDS011;23346;52.088;4.746;2023-07-20T05:37:44;48.83;;;44.50;;
37495;SDS011;23346;52.088;4.746;2023-07-20T05:40:10;48.97;;;44.78;;
37495;SDS011;23346;52.088;4.746;2023-07-20T05:42:37;47.08;;;43.15;;
37495;SDS011;23346;52.088;4.746;2023-07-20T05:45:03;55.85;;;51.60;;
37495;SDS011;23346;52.088;4.746;2023-07-20T05:47:29;52.63;;;48.72;;
37495;SDS011;23346;52.088;4.746;2023-07-20T05:49:56;51.72;;;48.03;;
37495;SDS011;23346;52.088;4.746;2023-07-20T05:52:21;50.75;;;46.83;;
37495;SDS011;23346;52.088;4.746;2023-07-20T05:54:47;54.72;;;50.60;;
37495;SDS011;23346;52.088;4.746;2023-07-20T05:57:13;53.47;;;49.40;;
37495;SDS011;23346;52.088;4.746;2023-07-20T05:59:39;50.33;;;46.45;;
37495;SDS011;23346;52.088;4.746;2023-07-20T06:02:09;50.00;;;45.40;;
37495;SDS011;23346;52.088;4.746;2023-07-20T06:04:35;47.53;;;43.72;;
37495;SDS011;23346;52.088;4.746;2023-07-20T06:07:01;46.00;;;42.63;;
37495;SDS011;23346;52.088;4.746;2023-07-20T06:09:26;48.03;;;44.70;;
37495;SDS011;23346;52.088;4.746;2023-07-20T06:11:53;53.00;;;49.00;;
37495;SDS011;23346;52.088;4.746;2023-07-20T06:14:19;48.33;;;44.70;;
37495;SDS011;23346;52.088;4.746;2023-07-20T06:16:45;47.50;;;43.88;;
37495;SDS011;23346;52.088;4.746;2023-07-20T06:19:11;45.85;;;42.55;;
37495;SDS011;23346;52.088;4.746;2023-07-20T06:21:37;43.13;;;40.05;;
37495;SDS011;23346;52.088;4.746;2023-07-20T06:24:03;41.92;;;38.35;;
37495;SDS011;23346;52.088;4.746;2023-07-20T06:26:29;39.70;;;36.00;;
37495;SDS011;23346;52.088;4.746;2023-07-20T06:28:55;41.42;;;38.05;;
37495;SDS011;23346;52.088;4.746;2023-07-20T06:31:21;39.15;;;36.25;;
37495;SDS011;23346;52.088;4.746;2023-07-20T06:33:47;39.28;;;36.50;;
37495;SDS011;23346;52.088;4.746;2023-07-20T06:36:13;40.97;;;37.85;;
37495;SDS011;23346;52.088;4.746;2023-07-20T06:38:39;41.83;;;38.58;;
37495;SDS011;23346;52.088;4.746;2023-07-20T06:41:05;42.58;;;39.78;;
37495;SDS011;23346;52.088;4.746;2023-07-20T06:43:31;39.92;;;37.10;;
37495;SDS011;23346;52.088;4.746;2023-07-20T06:45:57;43.15;;;39.90;;
37495;SDS011;23346;52.088;4.746;2023-07-20T06:48:23;41.60;;;38.45;;
37495;SDS011;23346;52.088;4.746;2023-07-20T06:50:49;40.25;;;37.63;;
37495;SDS011;23346;52.088;4.746;2023-07-20T06:53:15;39.38;;;36.65;;
37495;SDS011;23346;52.088;4.746;2023-07-20T06:55:42;43.22;;;40.55;;
37495;SDS011;23346;52.088;4.746;2023-07-20T06:58:09;41.38;;;38.60;;
37495;SDS011;23346;52.088;4.746;2023-07-20T07:00:35;46.70;;;43.83;;
37495;SDS011;23346;52.088;4.746;2023-07-20T07:03:01;44.47;;;42.00;;
37495;SDS011;23346;52.088;4.746;2023-07-20T07:05:27;60.60;;;57.33;;
37495;SDS011;23346;52.088;4.746;2023-07-20T07:07:53;66.03;;;62.58;;
37495;SDS011;23346;52.088;4.746;2023-07-20T07:10:19;64.00;;;60.65;;
37495;SDS011;23346;52.088;4.746;2023-07-20T07:12:45;53.50;;;50.92;;
37495;SDS011;23346;52.088;4.746;2023-07-20T07:15:11;52.88;;;50.38;;
37495;SDS011;23346;52.088;4.746;2023-07-20T07:17:37;54.60;;;52.00;;
37495;SDS011;23346;52.088;4.746;2023-07-20T07:20:03;56.15;;;53.38;;
37495;SDS011;23346;52.088;4.746;2023-07-20T07:22:29;61.65;;;58.83;;
37495;SDS011;23346;52.088;4.746;2023-07-20T07:24:55;62.85;;;59.75;;
37495;SDS011;23346;52.088;4.746;2023-07-20T07:27:21;65.72;;;62.40;;
37495;SDS011;23346;52.088;4.746;2023-07-20T07:29:47;69.05;;;65.88;;
37495;SDS011;23346;52.088;4.746;2023-07-20T07:32:14;66.97;;;63.67;;
37495;SDS011;23346;52.088;4.746;2023-07-20T07:34:40;76.78;;;73.18;;
37495;SDS011;23346;52.088;4.746;2023-07-20T07:37:06;69.45;;;66.28;;
37495;SDS011;23346;52.088;4.746;2023-07-20T07:39:32;74.45;;;70.95;;
37495;SDS011;23346;52.088;4.746;2023-07-20T07:41:59;66.63;;;63.53;;
37495;SDS011;23346;52.088;4.746;2023-07-20T07:44:25;102.57;;;97.85;;
37495;SDS011;23346;52.088;4.746;2023-07-20T07:46:51;66.65;;;63.65;;
37495;SDS011;23346;52.088;4.746;2023-07-20T07:49:18;68.18;;;64.65;;
37495;SDS011;23346;52.088;4.746;2023-07-20T07:51:44;70.57;;;67.22;;
37495;SDS011;23346;52.088;4.746;2023-07-20T07:54:10;64.55;;;61.65;;
37495;SDS011;23346;52.088;4.746;2023-07-20T07:56:36;65.05;;;61.95;;
37495;SDS011;23346;52.088;4.746;2023-07-20T07:59:02;61.30;;;58.53;;
37495;SDS011;23346;52.088;4.746;2023-07-20T08:01:28;58.00;;;55.28;;
37495;SDS011;23346;52.088;4.746;2023-07-20T08:03:55;60.72;;;58.03;;
37495;SDS011;23346;52.088;4.746;2023-07-20T08:06:21;62.92;;;60.05;;
37495;SDS011;23346;52.088;4.746;2023-07-20T08:08:48;64.85;;;61.70;;
37495;SDS011;23346;52.088;4.746;2023-07-20T08:11:14;60.90;;;58.03;;
37495;SDS011;23346;52.088;4.746;2023-07-20T08:13:40;64.93;;;61.95;;
37495;SDS011;23346;52.088;4.746;2023-07-20T08:16:06;63.85;;;60.95;;
37495;SDS011;23346;52.088;4.746;2023-07-20T08:18:32;78.32;;;74.47;;
37495;SDS011;23346;52.088;4.746;2023-07-20T08:20:58;77.38;;;73.88;;
37495;SDS011;23346;52.088;4.746;2023-07-20T08:23:24;70.85;;;67.57;;
37495;SDS011;23346;52.088;4.746;2023-07-20T08:25:52;64.10;;;60.90;;
37495;SDS011;23346;52.088;4.746;2023-07-20T08:28:18;73.60;;;70.22;;
37495;SDS011;23346;52.088;4.746;2023-07-20T08:30:45;71.75;;;68.50;;
37495;SDS011;23346;52.088;4.746;2023-07-20T08:33:12;80.05;;;76.32;;
37495;SDS011;23346;52.088;4.746;2023-07-20T08:35:38;69.35;;;66.22;;
37495;SDS011;23346;52.088;4.746;2023-07-20T08:38:05;70.30;;;66.95;;
37495;SDS011;23346;52.088;4.746;2023-07-20T08:40:32;63.85;;;60.88;;
37495;SDS011;23346;52.088;4.746;2023-07-20T08:42:59;63.08;;;59.92;;
37495;SDS011;23346;52.088;4.746;2023-07-20T08:45:28;67.82;;;64.70;;
37495;SDS011;23346;52.088;4.746;2023-07-20T08:47:56;71.55;;;68.10;;
37495;SDS011;23346;52.088;4.746;2023-07-20T08:50:25;70.88;;;67.68;;
37495;SDS011;23346;52.088;4.746;2023-07-20T08:52:51;54.17;;;51.75;;
37495;SDS011;23346;52.088;4.746;2023-07-20T08:55:20;60.85;;;58.03;;
37495;SDS011;23346;52.088;4.746;2023-07-20T08:57:47;53.35;;;50.95;;
37495;SDS011;23346;52.088;4.746;2023-07-20T09:00:15;47.60;;;45.40;;
37495;SDS011;23346;52.088;4.746;2023-07-20T09:02:42;51.42;;;49.13;;
37495;SDS011;23346;52.088;4.746;2023-07-20T09:05:10;66.72;;;63.72;;
37495;SDS011;23346;52.088;4.746;2023-07-20T09:07:39;66.05;;;63.03;;
37495;SDS011;23346;52.088;4.746;2023-07-20T09:10:05;61.22;;;58.35;;
37495;SDS011;23346;52.088;4.746;2023-07-20T09:12:32;62.67;;;59.78;;
37495;SDS011;23346;52.088;4.746;2023-07-20T09:15:00;70.90;;;67.43;;
37495;SDS011;23346;52.088;4.746;2023-07-20T09:17:26;67.85;;;64.68;;
37495;SDS011;23346;52.088;4.746;2023-07-20T09:19:52;71.60;;;68.35;;
37495;SDS011;23346;52.088;4.746;2023-07-20T09:22:18;76.35;;;72.85;;
37495;SDS011;23346;52.088;4.746;2023-07-20T09:24:44;82.88;;;79.05;;
37495;SDS011;23346;52.088;4.746;2023-07-20T09:27:10;71.70;;;68.38;;
37495;SDS011;23346;52.088;4.746;2023-07-20T09:29:50;74.18;;;70.80;;
37495;SDS011;23346;52.088;4.746;2023-07-20T09:32:20;82.28;;;78.45;;
37495;SDS011;23346;52.088;4.746;2023-07-20T09:34:46;82.38;;;78.65;;
37495;SDS011;23346;52.088;4.746;2023-07-20T09:37:12;74.38;;;70.85;;
37495;SDS011;23346;52.088;4.746;2023-07-20T09:39:42;63.47;;;60.40;;
37495;SDS011;23346;52.088;4.746;2023-07-20T09:42:10;57.70;;;54.78;;
37495;SDS011;23346;52.088;4.746;2023-07-20T09:44:37;63.13;;;59.95;;
37495;SDS011;23346;52.088;4.746;2023-07-20T09:47:04;60.65;;;57.90;;
37495;SDS011;23346;52.088;4.746;2023-07-20T09:49:30;59.58;;;56.72;;
37495;SDS011;23346;52.088;4.746;2023-07-20T09:51:57;59.40;;;56.53;;
37495;SDS011;23346;52.088;4.746;2023-07-20T09:54:25;60.63;;;57.83;;
37495;SDS011;23346;52.088;4.746;2023-07-20T09:56:53;58.15;;;55.53;;
37495;SDS011;23346;52.088;4.746;2023-07-20T09:59:19;65.22;;;62.05;;
37495;SDS011;23346;52.088;4.746;2023-07-20T10:01:45;56.05;;;53.33;;
37495;SDS011;23346;52.088;4.746;2023-07-20T10:04:11;56.50;;;53.75;;
37495;SDS011;23346;52.088;4.746;2023-07-20T10:06:39;54.08;;;51.60;;
37495;SDS011;23346;52.088;4.746;2023-07-20T10:09:07;64.88;;;61.72;;
37495;SDS011;23346;52.088;4.746;2023-07-20T10:11:35;64.82;;;61.60;;
37495;SDS011;23346;52.088;4.746;2023-07-20T10:14:03;67.43;;;64.35;;
37495;SDS011;23346;52.088;4.746;2023-07-20T10:16:37;62.85;;;60.03;;
37495;SDS011;23346;52.088;4.746;2023-07-20T10:19:11;68.55;;;65.50;;
37495;SDS011;23346;52.088;4.746;2023-07-20T10:21:40;69.63;;;66.35;;
37495;SDS011;23346;52.088;4.746;2023-07-20T10:24:06;66.03;;;63.03;;
37495;SDS011;23346;52.088;4.746;2023-07-20T10:26:33;62.92;;;59.95;;
37495;SDS011;23346;52.088;4.746;2023-07-20T10:28:59;64.53;;;61.33;;
37495;SDS011;23346;52.088;4.746;2023-07-20T10:31:25;67.47;;;64.43;;
37495;SDS011;23346;52.088;4.746;2023-07-20T10:33:53;58.22;;;55.53;;
37495;SDS011;23346;52.088;4.746;2023-07-20T10:36:26;53.10;;;50.55;;
37495;SDS011;23346;52.088;4.746;2023-07-20T10:41:20;58.90;;;56.10;;
37495;SDS011;23346;52.088;4.746;2023-07-20T10:43:46;53.90;;;51.38;;
37495;SDS011;23346;52.088;4.746;2023-07-20T10:46:13;58.58;;;55.88;;
37495;SDS011;23346;52.088;4.746;2023-07-20T10:51:23;67.90;;;64.72;;
37495;SDS011;23346;52.088;4.746;2023-07-20T10:53:49;71.95;;;68.65;;
37495;SDS011;23346;52.088;4.746;2023-07-20T10:56:20;72.70;;;69.35;;
37495;SDS011;23346;52.088;4.746;2023-07-20T10:58:46;72.20;;;68.90;;
37495;SDS011;23346;52.088;4.746;2023-07-20T11:01:17;70.90;;;67.70;;
37495;SDS011;23346;52.088;4.746;2023-07-20T11:03:43;68.32;;;65.22;;
37495;SDS011;23346;52.088;4.746;2023-07-20T11:09:03;52.42;;;49.92;;
37495;SDS011;23346;52.088;4.746;2023-07-20T11:11:30;52.50;;;49.83;;
37495;SDS011;23346;52.088;4.746;2023-07-20T11:13:57;51.53;;;49.13;;
37495;SDS011;23346;52.088;4.746;2023-07-20T11:19:02;65.13;;;62.05;;
37495;SDS011;23346;52.088;4.746;2023-07-20T11:21:28;57.92;;;55.33;;
37495;SDS011;23346;52.088;4.746;2023-07-20T11:23:54;59.00;;;56.30;;
37495;SDS011;23346;52.088;4.746;2023-07-20T11:26:21;46.08;;;44.03;;
37495;SDS011;23346;52.088;4.746;2023-07-20T11:28:50;51.90;;;49.50;;
37495;SDS011;23346;52.088;4.746;2023-07-20T11:31:17;55.53;;;52.85;;
37495;SDS011;23346;52.088;4.746;2023-07-20T11:33:43;55.45;;;52.78;;
37495;SDS011;23346;52.088;4.746;2023-07-20T11:36:09;64.82;;;61.83;;
37495;SDS011;23346;52.088;4.746;2023-07-20T11:38:35;71.38;;;68.10;;
37495;SDS011;23346;52.088;4.746;2023-07-20T11:41:02;75.53;;;71.93;;
37495;SDS011;23346;52.088;4.746;2023-07-20T11:43:31;68.05;;;64.95;;
37495;SDS011;23346;52.088;4.746;2023-07-20T11:45:57;70.43;;;67.13;;
37495;SDS011;23346;52.088;4.746;2023-07-20T11:48:23;67.60;;;64.50;;
37495;SDS011;23346;52.088;4.746;2023-07-20T11:50:49;66.47;;;63.40;;
37495;SDS011;23346;52.088;4.746;2023-07-20T11:53:15;66.97;;;63.78;;
37495;SDS011;23346;52.088;4.746;2023-07-20T11:55:41;73.57;;;70.22;;
37495;SDS011;23346;52.088;4.746;2023-07-20T11:58:08;73.20;;;69.93;;
37495;SDS011;23346;52.088;4.746;2023-07-20T12:00:34;74.10;;;70.70;;
37495;SDS011;23346;52.088;4.746;2023-07-20T12:03:01;73.55;;;70.15;;
37495;SDS011;23346;52.088;4.746;2023-07-20T12:05:27;72.47;;;69.18;;
37495;SDS011;23346;52.088;4.746;2023-07-20T12:07:54;67.88;;;64.85;;
37495;SDS011;23346;52.088;4.746;2023-07-20T12:10:23;63.22;;;60.33;;
37495;SDS011;23346;52.088;4.746;2023-07-20T12:12:50;65.28;;;62.33;;
37495;SDS011;23346;52.088;4.746;2023-07-20T12:15:16;64.20;;;61.10;;
37495;SDS011;23346;52.088;4.746;2023-07-20T12:17:43;63.47;;;60.60;;
37495;SDS011;23346;52.088;4.746;2023-07-20T12:20:09;52.08;;;49.72;;
37495;SDS011;23346;52.088;4.746;2023-07-20T12:22:43;52.92;;;50.50;;
37495;SDS011;23346;52.088;4.746;2023-07-20T12:25:09;61.83;;;58.97;;
37495;SDS011;23346;52.088;4.746;2023-07-20T12:27:36;59.45;;;56.75;;
37495;SDS011;23346;52.088;4.746;2023-07-20T12:30:06;65.10;;;62.05;;
37495;SDS011;23346;52.088;4.746;2023-07-20T12:32:32;66.43;;;63.35;;
37495;SDS011;23346;52.088;4.746;2023-07-20T12:34:59;59.30;;;56.60;;
37495;SDS011;23346;52.088;4.746;2023-07-20T12:37:25;57.83;;;55.03;;
37495;SDS011;23346;52.088;4.746;2023-07-20T12:39:51;60.38;;;57.58;;
37495;SDS011;23346;52.088;4.746;2023-07-20T12:42:17;63.33;;;60.42;;
37495;SDS011;23346;52.088;4.746;2023-07-20T12:44:43;63.53;;;59.88;;
37495;SDS011;23346;52.088;4.746;2023-07-20T12:47:09;62.03;;;59.22;;
37495;SDS011;23346;52.088;4.746;2023-07-20T12:49:35;60.20;;;57.40;;
37495;SDS011;23346;52.088;4.746;2023-07-20T12:52:01;61.97;;;59.17;;
37495;SDS011;23346;52.088;4.746;2023-07-20T12:54:28;61.90;;;58.95;;
37495;SDS011;23346;52.088;4.746;2023-07-20T12:56:54;57.53;;;54.92;;
37495;SDS011;23346;52.088;4.746;2023-07-20T12:59:20;56.88;;;54.28;;
37495;SDS011;23346;52.088;4.746;2023-07-20T13:01:46;50.30;;;48.10;;
37495;SDS011;23346;52.088;4.746;2023-07-20T13:04:12;57.92;;;55.33;;
37495;SDS011;23346;52.088;4.746;2023-07-20T13:06:38;57.05;;;54.50;;
37495;SDS011;23346;52.088;4.746;2023-07-20T13:09:06;63.38;;;60.58;;
37495;SDS011;23346;52.088;4.746;2023-07-20T13:11:32;62.40;;;59.60;;
37495;SDS011;23346;52.088;4.746;2023-07-20T13:13:58;61.75;;;58.80;;
37495;SDS011;23346;52.088;4.746;2023-07-20T13:16:24;62.38;;;59.58;;
37495;SDS011;23346;52.088;4.746;2023-07-20T13:18:50;66.40;;;63.30;;
37495;SDS011;23346;52.088;4.746;2023-07-20T13:21:16;60.53;;;57.80;;
37495;SDS011;23346;52.088;4.746;2023-07-20T13:23:45;62.88;;;60.03;;
37495;SDS011;23346;52.088;4.746;2023-07-20T13:26:11;58.05;;;55.45;;
37495;SDS011;23346;52.088;4.746;2023-07-20T13:28:37;59.60;;;56.95;;
37495;SDS011;23346;52.088;4.746;2023-07-20T13:31:03;56.22;;;53.63;;
37495;SDS011;23346;52.088;4.746;2023-07-20T13:33:29;57.65;;;54.85;;
37495;SDS011;23346;52.088;4.746;2023-07-20T13:35:55;57.92;;;55.33;;
37495;SDS011;23346;52.088;4.746;2023-07-20T13:38:21;59.85;;;57.17;;
37495;SDS011;23346;52.088;4.746;2023-07-20T13:40:47;60.63;;;57.83;;
37495;SDS011;23346;52.088;4.746;2023-07-20T13:43:13;61.00;;;58.30;;
37495;SDS011;23346;52.088;4.746;2023-07-20T13:45:39;60.72;;;57.92;;
37495;SDS011;23346;52.088;4.746;2023-07-20T13:48:05;55.60;;;53.10;;
37495;SDS011;23346;52.088;4.746;2023-07-20T13:50:31;55.83;;;53.25;;
37495;SDS011;23346;52.088;4.746;2023-07-20T13:52:57;58.00;;;55.40;;
37495;SDS011;23346;52.088;4.746;2023-07-20T13:55:23;58.33;;;55.65;;
37495;SDS011;23346;52.088;4.746;2023-07-20T13:57:48;59.50;;;56.80;;
37495;SDS011;23346;52.088;4.746;2023-07-20T14:00:15;64.78;;;61.78;;
37495;SDS011;23346;52.088;4.746;2023-07-20T14:02:41;65.35;;;62.42;;
37495;SDS011;23346;52.088;4.746;2023-07-20T14:05:07;69.00;;;65.70;;
37495;SDS011;23346;52.088;4.746;2023-07-20T14:07:34;76.03;;;72.60;;
37495;SDS011;23346;52.088;4.746;2023-07-20T14:10:01;73.70;;;70.13;;
37495;SDS011;23346;52.088;4.746;2023-07-20T14:12:27;79.93;;;76.32;;
37495;SDS011;23346;52.088;4.746;2023-07-20T14:14:53;79.60;;;75.97;;
37495;SDS011;23346;52.088;4.746;2023-07-20T14:17:20;73.88;;;70.57;;
37495;SDS011;23346;52.088;4.746;2023-07-20T14:19:46;72.63;;;69.35;;
37495;SDS011;23346;52.088;4.746;2023-07-20T14:22:12;73.47;;;70.15;;
37495;SDS011;23346;52.088;4.746;2023-07-20T14:24:38;76.22;;;72.60;;
37495;SDS011;23346;52.088;4.746;2023-07-20T14:27:04;69.50;;;66.38;;
37495;SDS011;23346;52.088;4.746;2023-07-20T14:29:30;74.63;;;71.25;;
37495;SDS011;23346;52.088;4.746;2023-07-20T14:31:57;77.95;;;74.43;;
37495;SDS011;23346;52.088;4.746;2023-07-20T14:34:23;76.35;;;72.65;;